National Weather Service United States Department of Commerce

Airport Observations and Forecasts (from NWS CLE)

Cleveland Hopkins International Airport

 

FAA details


000
FTUS41 KCLE 011136 AAB
TAFCLE
TAF AMD
KCLE 011136Z 0112/0218 25006KT P6SM FEW025
FM020000 22005KT P6SM SCT250
FM021400 22012G22KT P6SM SCT250=

24 hours of observations

7-day forecast

Hourly - Tabular forecast  Hourly - Graph forecast

Terminal Information Board

Toledo Express Airport

 

FAA details


000
FTUS41 KCLE 011136 AAA
TAFTOL
TAF AMD
KTOL 011136Z 0112/0212 24006KT P6SM SCT250=

24 hours of observations

7-day forecast

Hourly - Tabular forecast  Hourly - Graph forecast

Terminal Information Board

Findlay Airport

 

FAA details


000
FTUS41 KCLE 011136 AAA
TAFFDY
TAF AMD
KFDY 011136Z 0112/0212 25005KT P6SM SCT250=

24 hours of observations

7-day forecast

Hourly - Tabular forecast   Hourly - Graph forecast

Terminal Information Board

Mansfield Lahm Airport

 

FAA details


000
FTUS41 KCLE 011136 AAA
TAFMFD
TAF AMD
KMFD 011136Z 0112/0212 28005KT P6SM SCT250
FM020900 22007KT P6SM SCT250=

24 hours of observations

7-day forecast

Hourly - Tabular forecast   Hourly - Graph forecast

Terminal Information Board

Akron-Canton Airport

 

FAA details


000
FTUS41 KCLE 011136 AAA
TAFCAK
TAF AMD
KCAK 011136Z 0112/0212 27007KT P6SM SCT250=

24 hours of observations

7-day forecast

Hourly - Tabular forecast   Hourly - Graph forecast

Terminal Information Board

Youngstown-Warren Regional Airport

 

FAA details


000
FTUS41 KCLE 011136 AAB
TAFYNG
TAF AMD
KYNG 011136Z 0112/0212 27005KT P6SM -SN BKN025
FM011300 27005KT P6SM BKN035
FM011500 27007KT P6SM SCT250=

24 hours of observations

7-day forecast

Hourly - Tabular forecast   Hourly - Graph forecast

Terminal Information Board

Erie International Airport

 

FAA details


000
FTUS41 KCLE 011136 AAA
TAFERI
TAF AMD
KERI 011136Z 0112/0212 26012KT P6SM SCT025 OVC035
TEMPO 0112/0116 5SM -SHSN BKN025
FM012200 23010KT P6SM SCT250
FM020900 20012G20KT P6SM SCT250=

24 hours of observations

7-day forecast

Hourly - Tabular Forecast  Hourly - Graph forecast

Terminal Information Board

The National Weather Service is Cleveland is responsible for the Terminal Areodome Forecasts for seven area airports in northern Ohio and northwest Pennsylvania.  Routine issuance times are by 00Z, 06Z, 12Z, and 18Z with amendments, as needed.

Latest Surface Analysis

Additional Current Conditions

Satellite

Radar
 
 

 

Center Weather Service Unit, Oberlin/ZOB

CWA/MIS    

 

The National Weather Service Center Weather Service Unit in Oberlin is responsible for the airspace above northern Ohio and northwest Pennsylvania and ajoining areas.

 

Aviaiton Weather Center National, AWC

AIRMETS & SIGMETS